createdAt,value
2019-05-03T00:02:23.941Z,0.90
2019-05-03T00:04:54.869Z,0.63
2019-05-03T00:07:22.445Z,1.10
2019-05-03T00:09:49.802Z,0.57
2019-05-03T00:12:17.206Z,0.77
2019-05-03T00:14:46.530Z,0.60
2019-05-03T00:17:13.842Z,0.37
2019-05-03T00:19:42.239Z,0.60
2019-05-03T00:22:09.931Z,0.57
2019-05-03T00:24:37.267Z,0.10
2019-05-03T00:27:04.542Z,0.73
2019-05-03T00:29:32.506Z,0.37
2019-05-03T00:32:01.774Z,0.43
2019-05-03T00:34:34.705Z,0.40
2019-05-03T00:37:04.249Z,0.37
2019-05-03T00:39:36.623Z,0.40
2019-05-03T00:42:04.010Z,0.50
2019-05-03T00:44:31.753Z,0.63
2019-05-03T00:46:59.443Z,0.50
2019-05-03T00:49:26.799Z,0.50
2019-05-03T00:51:54.144Z,0.40
2019-05-03T00:54:22.302Z,0.60
2019-05-03T00:56:49.861Z,1.70
2019-05-03T00:59:17.202Z,0.30
2019-05-03T01:01:44.504Z,0.73
2019-05-03T01:04:11.966Z,0.60
2019-05-03T01:06:39.322Z,0.73
2019-05-03T01:09:13.008Z,1.37
2019-05-03T01:11:41.834Z,1.20
2019-05-03T01:14:11.908Z,0.40
2019-05-03T01:16:39.317Z,0.60
2019-05-03T01:19:06.617Z,0.40
2019-05-03T01:21:33.978Z,0.60
2019-05-03T01:24:01.695Z,1.23
2019-05-03T01:26:29.176Z,0.50
2019-05-03T01:28:56.503Z,0.63
2019-05-03T01:31:23.862Z,0.63
2019-05-03T01:33:51.763Z,0.67
2019-05-03T01:36:19.503Z,0.73
2019-05-03T01:38:46.863Z,3.13
2019-05-03T01:41:14.165Z,0.70
2019-05-03T01:43:41.902Z,1.70
2019-05-03T01:46:09.523Z,0.43
2019-05-03T01:49:12.290Z,0.70
2019-05-03T01:52:05.363Z,0.87
2019-05-03T01:54:32.722Z,0.80
2019-05-03T01:57:02.250Z,1.07
2019-05-03T01:59:29.242Z,1.03
2019-05-03T02:02:14.604Z,1.27
2019-05-03T02:04:46.078Z,0.73
2019-05-03T02:07:13.446Z,1.50
2019-05-03T02:09:41.685Z,1.10
2019-05-03T02:12:09.138Z,0.80
2019-05-03T02:14:36.456Z,0.70
2019-05-03T02:17:03.737Z,1.83
2019-05-03T02:19:32.688Z,0.53
2019-05-03T02:22:00.247Z,0.70
2019-05-03T02:24:27.527Z,0.60
2019-05-03T02:26:54.878Z,1.20
2019-05-03T02:29:22.183Z,0.73
2019-05-03T02:31:49.465Z,0.80
2019-05-03T02:34:16.796Z,1.47
2019-05-03T02:36:44.144Z,0.90
2019-05-03T02:39:14.231Z,1.20
2019-05-03T02:41:41.525Z,0.80
2019-05-03T02:44:09.046Z,0.60
2019-05-03T02:46:48.396Z,0.87
2019-05-03T02:49:26.052Z,0.53
2019-05-03T02:51:55.499Z,0.90
2019-05-03T02:54:22.730Z,1.13
2019-05-03T02:56:50.050Z,0.87
2019-05-03T02:59:17.307Z,1.10
2019-05-03T03:01:46.488Z,1.67
2019-05-03T03:04:15.832Z,1.20
2019-05-03T03:06:45.482Z,1.27
2019-05-03T03:09:16.477Z,1.30
2019-05-03T03:11:45.753Z,1.40
2019-05-03T03:14:16.741Z,1.10
2019-05-03T03:16:47.551Z,1.60
2019-05-03T03:19:16.104Z,1.47
2019-05-03T03:21:46.614Z,0.93
2019-05-03T03:24:17.924Z,1.17
2019-05-03T03:26:47.524Z,1.00
2019-05-03T03:29:16.854Z,0.50
2019-05-03T03:32:21.685Z,0.70
2019-05-03T03:35:02.944Z,0.60
2019-05-03T03:37:28.529Z,1.00
2019-05-03T03:39:58.693Z,1.47
2019-05-03T03:42:27.804Z,0.80
2019-05-03T03:44:56.585Z,1.93
2019-05-03T03:47:27.340Z,1.03
2019-05-03T03:49:55.305Z,1.20
2019-05-03T03:52:25.309Z,1.70
2019-05-03T03:54:55.414Z,1.10
2019-05-03T03:57:25.285Z,1.20
2019-05-03T03:59:52.785Z,1.27
2019-05-03T04:02:20.209Z,1.63
2019-05-03T04:04:47.589Z,1.40
2019-05-03T04:07:16.003Z,3.93
2019-05-03T04:09:45.734Z,1.70
2019-05-03T04:12:13.121Z,1.90
2019-05-03T04:14:47.676Z,1.20
2019-05-03T04:17:26.640Z,1.20
2019-05-03T04:19:55.922Z,1.10
2019-05-03T04:22:25.745Z,1.20
2019-05-03T04:24:55.299Z,1.13
2019-05-03T04:27:26.438Z,1.63
2019-05-03T04:29:51.802Z,1.33
2019-05-03T04:32:19.083Z,1.10
2019-05-03T04:34:46.443Z,1.67
2019-05-03T04:37:16.151Z,1.87
2019-05-03T04:39:45.349Z,2.10
2019-05-03T04:42:12.245Z,2.10
2019-05-03T04:44:39.552Z,2.33
2019-05-03T04:47:07.312Z,2.77
2019-05-03T04:49:36.245Z,2.47
2019-05-03T04:52:05.814Z,2.43
2019-05-03T04:54:51.967Z,2.60
2019-05-03T04:57:34.901Z,2.70
2019-05-03T04:59:48.811Z,2.70
2019-05-03T05:02:16.191Z,3.00
2019-05-03T05:04:46.062Z,2.60
2019-05-03T05:07:15.257Z,2.40
2019-05-03T05:09:41.894Z,2.57
2019-05-03T05:12:09.219Z,3.27
2019-05-03T05:14:36.586Z,1.70
2019-05-03T05:17:06.128Z,2.30
2019-05-03T05:19:51.582Z,2.37
2019-05-03T05:22:24.311Z,2.30
2019-05-03T05:24:51.908Z,3.37
2019-05-03T05:27:25.736Z,4.60
2019-05-03T05:29:55.285Z,3.80
2019-05-03T05:32:22.456Z,3.00
2019-05-03T05:34:49.863Z,3.00
2019-05-03T05:37:17.166Z,2.97
2019-05-03T05:39:44.797Z,3.20
2019-05-03T05:42:12.404Z,3.20
2019-05-03T05:44:39.753Z,3.90
2019-05-03T05:47:15.008Z,3.53
2019-05-03T05:49:54.895Z,4.17
2019-05-03T05:52:24.405Z,3.87
2019-05-03T05:55:00.801Z,3.90
2019-05-03T05:58:08.136Z,4.23
2019-05-03T06:00:44.794Z,3.47
2019-05-03T06:03:12.170Z,5.30
2019-05-03T06:05:39.705Z,5.30
2019-05-03T06:08:26.575Z,4.60
2019-05-03T06:11:16.332Z,5.33
2019-05-03T06:13:56.800Z,5.80
2019-05-03T06:16:34.895Z,5.57
2019-05-03T06:19:30.718Z,5.47
2019-05-03T06:22:08.072Z,4.70
2019-05-03T06:24:40.382Z,5.30
2019-05-03T06:27:16.612Z,4.80
2019-05-03T06:29:45.483Z,5.33
2019-05-03T06:32:22.990Z,5.67
2019-05-03T06:34:50.307Z,4.70
2019-05-03T06:37:19.562Z,4.30
2019-05-03T06:39:46.908Z,3.90
2019-05-03T06:42:17.412Z,5.00
2019-05-03T06:44:46.015Z,5.63
2019-05-03T06:47:14.827Z,5.20
2019-05-03T06:49:44.901Z,4.70
2019-05-03T06:52:11.587Z,4.73
2019-05-03T06:54:41.754Z,5.17
2019-05-03T06:57:10.993Z,5.00
2019-05-03T06:59:57.853Z,5.33
2019-05-03T07:02:46.533Z,5.63
2019-05-03T07:05:40.367Z,4.90
2019-05-03T07:08:28.102Z,5.27
2019-05-03T07:10:57.767Z,2.73
2019-05-03T07:13:25.519Z,3.00
2019-05-03T07:15:52.906Z,2.13
2019-05-03T07:18:20.257Z,1.97
2019-05-03T07:20:56.518Z,2.13
2019-05-03T07:23:24.112Z,2.70
2019-05-03T07:25:51.436Z,2.47
2019-05-03T07:28:18.773Z,2.60
2019-05-03T07:30:46.089Z,3.07
2019-05-03T07:33:20.536Z,2.73
2019-05-03T07:35:47.826Z,4.90
2019-05-03T07:38:15.575Z,2.93
2019-05-03T07:40:44.586Z,2.53
2019-05-03T07:43:12.211Z,3.60
2019-05-03T07:45:39.509Z,2.80
2019-05-03T07:48:08.650Z,3.00
2019-05-03T07:50:36.023Z,3.20
2019-05-03T07:53:04.638Z,2.63
2019-05-03T07:55:51.897Z,2.80
2019-05-03T07:58:21.121Z,9.87
2019-05-03T08:01:02.550Z,4.47
2019-05-03T08:03:18.650Z,3.20
2019-05-03T08:05:45.949Z,3.57
2019-05-03T08:08:14.944Z,3.47
2019-05-03T08:10:44.864Z,7.13
2019-05-03T08:13:11.763Z,3.70
2019-05-03T08:15:39.161Z,2.93
2019-05-03T08:18:09.121Z,2.50
2019-05-03T08:20:36.628Z,2.43
2019-05-03T08:23:05.312Z,1.70
2019-05-03T08:25:33.004Z,1.57
2019-05-03T08:28:00.350Z,1.37
2019-05-03T08:30:36.590Z,1.93
2019-05-03T08:33:11.269Z,1.30
2019-05-03T08:35:41.034Z,0.63
2019-05-03T08:38:08.347Z,1.30
2019-05-03T08:40:41.682Z,0.97
2019-05-03T08:43:09.007Z,1.13
2019-05-03T08:45:36.404Z,1.97
2019-05-03T08:48:05.550Z,2.30
2019-05-03T08:50:34.742Z,1.10
2019-05-03T08:53:04.891Z,1.37
2019-05-03T08:55:31.552Z,2.10
2019-05-03T08:57:58.887Z,1.20
2019-05-03T09:00:28.176Z,1.93
2019-05-03T09:02:55.552Z,1.90
2019-05-03T09:05:25.070Z,2.57
2019-05-03T09:07:52.363Z,2.33
2019-05-03T09:10:27.926Z,2.77
2019-05-03T09:13:06.562Z,2.23
2019-05-03T09:15:35.106Z,2.60
2019-05-03T09:18:04.625Z,2.23
2019-05-03T09:20:32.405Z,2.90
2019-05-03T09:23:00.068Z,2.30
2019-05-03T09:25:27.422Z,2.40
2019-05-03T09:27:55.225Z,2.87
2019-05-03T09:30:24.985Z,3.13
2019-05-03T09:32:52.067Z,1.80
2019-05-03T09:35:29.628Z,1.60
2019-05-03T09:37:48.543Z,2.30
2019-05-03T09:40:15.957Z,2.27
2019-05-03T09:42:44.520Z,2.30
2019-05-03T09:45:12.429Z,4.17
2019-05-03T09:47:39.725Z,3.53
2019-05-03T09:50:07.528Z,3.50
2019-05-03T09:52:35.593Z,2.20
2019-05-03T09:55:05.674Z,2.80
2019-05-03T09:57:34.717Z,3.03
2019-05-03T10:00:04.755Z,2.23
2019-05-03T10:02:31.752Z,2.53
2019-05-03T10:04:59.156Z,1.03
2019-05-03T10:07:27.512Z,9.80
2019-05-03T10:09:55.376Z,37.13
2019-05-03T10:12:25.473Z,17.23
2019-05-03T10:14:54.840Z,61.07
2019-05-03T10:17:51.014Z,129.93
2019-05-03T10:20:19.857Z,89.07
2019-05-03T10:22:47.151Z,77.60
2019-05-03T10:25:14.464Z,35.63
2019-05-03T10:27:47.306Z,1.80
2019-05-03T10:30:19.578Z,2.40
2019-05-03T10:32:51.184Z,1.83
2019-05-03T10:35:19.172Z,1.80
2019-05-03T10:37:46.604Z,2.40
2019-05-03T10:40:18.529Z,2.10
2019-05-03T10:42:45.947Z,1.73
2019-05-03T10:45:15.249Z,1.90
2019-05-03T10:47:42.687Z,3.07
2019-05-03T10:50:10.284Z,1.30
2019-05-03T10:52:44.670Z,1.53
2019-05-03T10:55:12.273Z,1.20
2019-05-03T10:57:44.963Z,1.30
2019-05-03T11:00:41.739Z,1.20
2019-05-03T11:02:54.985Z,1.00
2019-05-03T11:05:22.428Z,0.70
2019-05-03T11:07:49.781Z,1.57
2019-05-03T11:10:17.278Z,1.20
2019-05-03T11:12:44.635Z,1.10
2019-05-03T11:15:12.138Z,3.73
2019-05-03T11:17:39.516Z,1.30
2019-05-03T11:20:06.949Z,1.23
2019-05-03T11:22:34.951Z,1.20
2019-05-03T11:25:02.540Z,1.30
2019-05-03T11:27:49.434Z,1.20
2019-05-03T11:30:17.611Z,2.03
2019-05-03T11:33:15.155Z,2.83
2019-05-03T11:35:50.262Z,1.20
2019-05-03T11:38:20.419Z,2.67
2019-05-03T11:40:47.828Z,2.70
2019-05-03T11:43:16.862Z,1.20
2019-05-03T11:45:44.876Z,1.20
2019-05-03T11:48:14.666Z,1.77
2019-05-03T11:50:42.494Z,2.40
2019-05-03T11:53:09.911Z,1.47
2019-05-03T11:55:37.276Z,1.60
2019-05-03T11:58:17.724Z,1.47
2019-05-03T12:00:45.289Z,1.40
2019-05-03T12:03:18.137Z,1.23
2019-05-03T12:05:48.603Z,1.73
2019-05-03T12:08:16.069Z,1.27
2019-05-03T12:10:55.162Z,1.40
2019-05-03T12:13:19.197Z,1.73
2019-05-03T12:15:46.633Z,1.70
2019-05-03T12:18:16.335Z,1.30
2019-05-03T12:20:46.532Z,2.83
2019-05-03T12:23:15.643Z,1.60
2019-05-03T12:25:45.351Z,2.17
2019-05-03T12:28:11.662Z,1.90
2019-05-03T12:30:39.072Z,3.20
2019-05-03T12:33:06.554Z,1.13
2019-05-03T12:35:35.764Z,1.13
2019-05-03T12:38:05.430Z,1.20
2019-05-03T12:40:32.540Z,0.97
2019-05-03T12:43:00.063Z,2.40
2019-05-03T12:45:27.428Z,0.90
2019-05-03T12:47:55.944Z,0.80
2019-05-03T12:50:25.168Z,0.80
2019-05-03T12:52:55.229Z,0.70
2019-05-03T12:55:22.064Z,1.43
2019-05-03T12:57:49.485Z,0.80
2019-05-03T13:00:35.642Z,0.70
2019-05-03T13:03:09.211Z,0.57
2019-05-03T13:05:36.596Z,0.80
2019-05-03T13:08:48.731Z,0.40
2019-05-03T13:11:16.229Z,0.47
2019-05-03T13:13:45.177Z,0.37
2019-05-03T13:16:16.868Z,0.40
2019-05-03T13:18:45.796Z,0.70
2019-05-03T13:21:13.383Z,0.20
2019-05-03T13:23:40.714Z,0.57
2019-05-03T13:26:09.107Z,0.40
2019-05-03T13:28:36.471Z,0.50
2019-05-03T13:31:05.830Z,0.30
2019-05-03T13:33:34.788Z,1.47
2019-05-03T13:36:02.511Z,0.20
2019-05-03T13:38:29.865Z,0.20
2019-05-03T13:40:57.514Z,0.60
2019-05-03T13:43:24.844Z,0.97
2019-05-03T13:45:52.251Z,0.33
2019-05-03T13:48:21.026Z,0.50
2019-05-03T13:50:48.810Z,0.40
2019-05-03T13:53:16.267Z,0.30
2019-05-03T13:55:44.556Z,0.50
2019-05-03T13:58:12.187Z,0.50
2019-05-03T14:00:39.572Z,0.27
2019-05-03T14:03:06.956Z,0.63
2019-05-03T14:05:35.198Z,2.13
2019-05-03T14:08:05.094Z,0.60
2019-05-03T14:10:32.278Z,0.43
2019-05-03T14:12:59.697Z,0.50
2019-05-03T14:15:27.150Z,0.40
2019-05-03T14:17:54.792Z,0.93
2019-05-03T14:20:42.827Z,1.70
2019-05-03T14:23:10.336Z,0.70
2019-05-03T14:25:37.671Z,1.07
2019-05-03T14:28:05.477Z,1.30
2019-05-03T14:30:34.625Z,2.37
2019-05-03T14:33:02.309Z,1.50
2019-05-03T14:35:29.657Z,0.77
2019-05-03T14:37:57.037Z,1.30
2019-05-03T14:40:25.124Z,0.73
2019-05-03T14:42:55.476Z,1.60
2019-05-03T14:45:22.982Z,0.47
2019-05-03T14:47:50.374Z,0.63
2019-05-03T14:50:17.800Z,1.23
2019-05-03T14:52:45.566Z,1.37
2019-05-03T14:55:22.714Z,0.93
2019-05-03T14:58:05.190Z,1.07
2019-05-03T15:00:52.102Z,0.93
2019-05-03T15:03:24.206Z,2.53
2019-05-03T15:05:51.798Z,1.20
2019-05-03T15:08:19.254Z,1.23
2019-05-03T15:10:46.730Z,0.50
2019-05-03T15:13:15.913Z,0.90
2019-05-03T15:15:45.131Z,3.07
2019-05-03T15:18:14.752Z,1.00
2019-05-03T15:20:42.044Z,0.90
2019-05-03T15:23:09.383Z,0.90
2019-05-03T15:25:36.801Z,0.63
2019-05-03T15:28:05.007Z,1.17
2019-05-03T15:30:32.700Z,0.80
2019-05-03T15:33:01.005Z,1.33
2019-05-03T15:35:28.520Z,1.07
2019-05-03T15:37:55.956Z,0.73
2019-05-03T15:40:25.097Z,1.13
2019-05-03T15:42:59.118Z,0.83
2019-05-03T15:46:01.247Z,0.70
2019-05-03T15:48:30.974Z,1.53
2019-05-03T15:50:58.397Z,0.63
2019-05-03T15:53:25.759Z,0.30
2019-05-03T15:55:55.019Z,1.43
2019-05-03T15:58:22.464Z,0.30
2019-05-03T16:00:49.954Z,0.63
2019-05-03T16:03:17.750Z,0.67
2019-05-03T16:05:45.125Z,0.63
2019-05-03T16:08:12.484Z,0.30
2019-05-03T16:10:39.925Z,0.30
2019-05-03T16:13:07.258Z,0.50
2019-05-03T16:15:35.160Z,0.33
2019-05-03T16:18:05.030Z,0.77
2019-05-03T16:20:34.510Z,0.40
2019-05-03T16:23:01.497Z,0.97
2019-05-03T16:25:28.925Z,1.73
2019-05-03T16:28:20.498Z,1.20
2019-05-03T16:30:50.745Z,1.03
2019-05-03T16:33:27.063Z,1.57
2019-05-03T16:35:47.528Z,0.80
2019-05-03T16:38:15.684Z,2.43
2019-05-03T16:40:45.000Z,1.10
2019-05-03T16:43:12.496Z,1.27
2019-05-03T16:45:39.879Z,1.60
2019-05-03T16:48:08.411Z,1.67
2019-05-03T16:50:35.807Z,3.33
2019-05-03T16:53:03.288Z,1.40
2019-05-03T16:55:30.842Z,1.20
2019-05-03T16:57:58.258Z,1.97
2019-05-03T17:00:25.709Z,1.73
2019-05-03T17:02:54.965Z,1.93
2019-05-03T17:05:57.262Z,1.70
2019-05-03T17:08:31.326Z,1.50
2019-05-03T17:11:00.577Z,1.73
2019-05-03T17:13:27.964Z,1.60
2019-05-03T17:15:55.384Z,1.77
2019-05-03T17:18:24.630Z,1.97
2019-05-03T17:20:52.166Z,1.43
2019-05-03T17:23:20.579Z,1.90
2019-05-03T17:25:47.988Z,2.23
2019-05-03T17:28:15.761Z,1.53
2019-05-03T17:30:44.576Z,1.60
2019-05-03T17:33:12.046Z,1.37
2019-05-03T17:35:39.410Z,1.53
2019-05-03T17:38:06.804Z,1.97
2019-05-03T17:40:58.269Z,2.00
2019-05-03T17:43:51.394Z,1.80
2019-05-03T17:46:18.903Z,2.30
2019-05-03T17:48:46.287Z,1.43
2019-05-03T17:51:35.138Z,1.80
2019-05-03T17:54:11.778Z,2.03
2019-05-03T17:56:57.992Z,2.97
2019-05-03T17:59:30.355Z,1.73
2019-05-03T18:02:16.030Z,3.57
2019-05-03T18:05:14.991Z,2.30
2019-05-03T18:08:04.740Z,2.67
2019-05-03T18:10:33.386Z,2.23
2019-05-03T18:13:00.779Z,2.07
2019-05-03T18:15:28.229Z,2.20
2019-05-03T18:17:55.685Z,2.30
2019-05-03T18:20:23.115Z,2.13
2019-05-03T18:22:50.468Z,2.00
2019-05-03T18:25:20.585Z,2.43
2019-05-03T18:27:47.984Z,2.23
2019-05-03T18:30:15.407Z,2.60
2019-05-03T18:32:42.855Z,2.00
2019-05-03T18:35:10.473Z,2.33
2019-05-03T18:37:37.931Z,2.10
2019-05-03T18:40:05.803Z,2.03
2019-05-03T18:42:39.952Z,1.80
2019-05-03T18:45:15.128Z,1.80
2019-05-03T18:47:44.923Z,2.37
2019-05-03T18:50:12.499Z,1.93
2019-05-03T18:52:40.009Z,1.90
2019-05-03T18:55:07.559Z,1.83
2019-05-03T18:57:36.360Z,2.10
2019-05-03T19:00:07.967Z,1.70
2019-05-03T19:02:33.863Z,1.57
2019-05-03T19:05:01.716Z,1.60
2019-05-03T19:07:47.521Z,2.00
2019-05-03T19:10:40.332Z,1.70
2019-05-03T19:13:15.388Z,1.70
2019-05-03T19:15:43.172Z,1.63
2019-05-03T19:18:35.253Z,1.67
2019-05-03T19:21:04.611Z,1.97
2019-05-03T19:23:32.658Z,1.67
2019-05-03T19:26:00.125Z,1.60
2019-05-03T19:28:27.595Z,1.40
2019-05-03T19:30:55.334Z,2.23
2019-05-03T19:33:24.485Z,1.47
2019-05-03T19:35:52.588Z,1.67
2019-05-03T19:38:21.188Z,1.60
2019-05-03T19:40:49.707Z,1.67
2019-05-03T19:43:18.273Z,1.60
2019-05-03T19:45:46.841Z,1.67
2019-05-03T19:48:16.878Z,2.20
2019-05-03T19:50:46.258Z,1.77
2019-05-03T19:53:19.899Z,2.30
2019-05-03T19:55:50.541Z,1.90
2019-05-03T19:58:19.225Z,2.20
2019-05-03T20:01:09.250Z,2.47
2019-05-03T20:03:45.515Z,2.57
2019-05-03T20:06:25.211Z,2.60
2019-05-03T20:08:58.364Z,2.80
2019-05-03T20:11:26.351Z,2.50
2019-05-03T20:13:55.180Z,2.70
2019-05-03T20:16:22.913Z,3.00
2019-05-03T20:18:50.359Z,2.90
2019-05-03T20:21:17.775Z,2.67
2019-05-03T20:23:47.132Z,2.70
2019-05-03T20:26:15.169Z,2.30
2019-05-03T20:28:44.802Z,3.50
2019-05-03T20:31:12.477Z,6.77
2019-05-03T20:33:39.882Z,4.43
2019-05-03T20:36:07.254Z,7.30
2019-05-03T20:38:34.709Z,3.80
2019-05-03T20:41:02.136Z,3.90
2019-05-03T20:43:36.716Z,3.97
2019-05-03T20:46:15.154Z,3.47
2019-05-03T20:48:44.911Z,3.23
2019-05-03T20:51:12.322Z,5.43
2019-05-03T20:53:39.667Z,3.60
2019-05-03T20:56:07.255Z,3.77
2019-05-03T20:58:35.816Z,3.83
2019-05-03T21:01:05.002Z,4.63
2019-05-03T21:03:32.735Z,4.80
2019-05-03T21:06:02.392Z,5.20
2019-05-03T21:08:30.698Z,5.07
2019-05-03T21:10:58.121Z,5.00
2019-05-03T21:13:38.646Z,4.73
2019-05-03T21:16:14.804Z,4.47
2019-05-03T21:18:57.959Z,4.43
2019-05-03T21:21:35.204Z,3.80
2019-05-03T21:24:11.652Z,4.07
2019-05-03T21:26:39.586Z,4.40
2019-05-03T21:29:07.163Z,4.20
2019-05-03T21:31:35.199Z,4.60
2019-05-03T21:34:05.623Z,4.20
2019-05-03T21:36:34.901Z,4.80
2019-05-03T21:39:02.891Z,4.23
2019-05-03T21:41:30.251Z,5.23
2019-05-03T21:43:57.693Z,4.20
2019-05-03T21:46:40.116Z,3.67
2019-05-03T21:49:15.852Z,3.80
2019-05-03T21:51:44.967Z,4.00
2019-05-03T21:54:12.480Z,4.20
2019-05-03T21:56:39.987Z,4.03
2019-05-03T21:59:07.490Z,4.00
2019-05-03T22:01:37.644Z,4.43
2019-05-03T22:04:05.052Z,4.87
2019-05-03T22:06:32.460Z,4.40
2019-05-03T22:08:59.823Z,4.67
2019-05-03T22:11:27.177Z,4.63
2019-05-03T22:13:57.144Z,4.10
2019-05-03T22:16:46.832Z,3.70
2019-05-03T22:19:16.280Z,4.60
2019-05-03T22:22:02.997Z,4.20
2019-05-03T22:24:37.666Z,4.60
2019-05-03T22:27:15.395Z,4.77
2019-05-03T22:29:44.656Z,4.70
2019-05-03T22:32:12.243Z,5.47
2019-05-03T22:34:39.612Z,4.53
2019-05-03T22:37:06.967Z,5.63
2019-05-03T22:39:34.326Z,4.70
2019-05-03T22:42:01.665Z,4.77
2019-05-03T22:44:29.066Z,4.73
2019-05-03T22:46:56.431Z,4.83
2019-05-03T22:49:25.724Z,5.13
2019-05-03T22:51:54.350Z,4.40
2019-05-03T22:54:22.004Z,5.20
2019-05-03T22:56:49.367Z,4.60
2019-05-03T22:59:16.737Z,4.70
2019-05-03T23:01:45.784Z,4.53
2019-05-03T23:04:14.704Z,4.60
2019-05-03T23:06:46.716Z,5.17
2019-05-03T23:09:11.616Z,4.33
2019-05-03T23:11:38.963Z,4.70
2019-05-03T23:14:06.323Z,4.80
2019-05-03T23:16:35.628Z,5.03
2019-05-03T23:19:05.325Z,4.87
2019-05-03T23:21:54.479Z,4.30
2019-05-03T23:24:22.026Z,4.30
2019-05-03T23:26:49.363Z,4.93
2019-05-03T23:29:16.749Z,4.23
2019-05-03T23:31:44.833Z,4.37
2019-05-03T23:34:12.443Z,4.17
2019-05-03T23:36:39.795Z,3.83
2019-05-03T23:39:08.609Z,4.63
2019-05-03T23:41:36.026Z,3.83
2019-05-03T23:44:04.793Z,3.73
2019-05-03T23:46:56.627Z,3.57
2019-05-03T23:49:25.003Z,4.00
2019-05-03T23:51:55.521Z,4.30
2019-05-03T23:54:24.744Z,4.30
2019-05-03T23:56:55.022Z,3.97
2019-05-03T23:59:22.345Z,3.67
